createdAt,value
2022-09-25T00:00:45.792Z,4.07
2022-09-25T00:03:13.886Z,3.67
2022-09-25T00:05:41.991Z,4.10
2022-09-25T00:08:09.731Z,4.70
2022-09-25T00:10:50.643Z,3.60
2022-09-25T00:13:19.010Z,3.17
2022-09-25T00:15:51.646Z,4.27
2022-09-25T00:18:41.994Z,5.03
2022-09-25T00:21:12.687Z,4.00
2022-09-25T00:23:40.442Z,6.23
2022-09-25T00:26:08.281Z,4.47
2022-09-25T00:28:36.659Z,4.10
2022-09-25T00:31:05.588Z,3.73
2022-09-25T00:33:33.205Z,3.67
2022-09-25T00:36:05.203Z,3.83
2022-09-25T00:38:33.063Z,3.83
2022-09-25T00:41:00.283Z,4.33
2022-09-25T00:43:57.553Z,4.07
2022-09-25T00:46:40.735Z,4.80
2022-09-25T00:49:12.782Z,4.43
2022-09-25T00:51:58.986Z,3.57
2022-09-25T00:54:29.751Z,3.77
2022-09-25T00:56:58.807Z,4.80
2022-09-25T00:59:31.106Z,4.30
2022-09-25T01:01:59.483Z,4.63
2022-09-25T01:04:28.963Z,5.37
2022-09-25T01:06:56.035Z,4.60
2022-09-25T01:09:23.425Z,5.17
2022-09-25T01:11:50.009Z,5.13
2022-09-25T01:14:17.475Z,5.87
2022-09-25T01:17:00.070Z,5.20
2022-09-25T01:20:08.175Z,5.17
2022-09-25T01:22:53.394Z,5.10
2022-09-25T01:26:00.501Z,6.47
2022-09-25T01:28:57.088Z,5.13
2022-09-25T01:31:35.780Z,5.33
2022-09-25T01:34:48.668Z,5.83
2022-09-25T01:37:27.072Z,5.33
2022-09-25T01:40:08.423Z,4.90
2022-09-25T01:42:43.013Z,5.00
2022-09-25T01:45:17.402Z,5.00
2022-09-25T01:47:49.101Z,5.00
2022-09-25T01:50:42.565Z,5.27
2022-09-25T01:53:16.440Z,6.80
2022-09-25T01:55:48.754Z,6.00
2022-09-25T01:58:24.149Z,6.13
2022-09-25T02:01:09.014Z,6.13
2022-09-25T02:03:47.548Z,6.23
2022-09-25T02:06:19.814Z,4.87
2022-09-25T02:08:54.066Z,6.60
2022-09-25T02:11:21.029Z,6.20
2022-09-25T02:13:52.064Z,5.30
2022-09-25T02:16:38.240Z,5.20
2022-09-25T02:19:24.148Z,5.33
2022-09-25T02:22:03.389Z,5.43
2022-09-25T02:24:53.082Z,5.23
2022-09-25T02:27:23.488Z,4.87
2022-09-25T02:29:51.142Z,5.07
2022-09-25T02:32:21.808Z,4.07
2022-09-25T02:34:48.635Z,3.67
2022-09-25T02:37:18.698Z,3.43
2022-09-25T02:39:50.218Z,4.43
2022-09-25T02:42:29.003Z,5.00
2022-09-25T02:45:14.217Z,4.80
2022-09-25T02:48:03.185Z,4.30
2022-09-25T02:50:54.729Z,4.80
2022-09-25T02:53:48.196Z,5.73
2022-09-25T02:56:17.965Z,5.53
2022-09-25T02:58:52.587Z,4.73
2022-09-25T03:01:22.439Z,4.57
2022-09-25T03:03:54.010Z,5.10
2022-09-25T03:06:22.779Z,5.60
2022-09-25T03:08:54.313Z,4.67
2022-09-25T03:11:22.075Z,4.80
2022-09-25T03:14:02.608Z,4.67
2022-09-25T03:16:36.425Z,4.27
2022-09-25T03:19:03.634Z,4.33
2022-09-25T03:21:30.184Z,4.87
2022-09-25T03:23:57.164Z,3.90
2022-09-25T03:26:25.194Z,4.30
2022-09-25T03:28:52.391Z,5.53
2022-09-25T03:31:19.844Z,5.17
2022-09-25T03:33:47.611Z,5.53
2022-09-25T03:36:20.661Z,5.33
2022-09-25T03:38:50.608Z,4.20
2022-09-25T03:41:21.436Z,5.83
2022-09-25T03:43:51.377Z,5.63
2022-09-25T03:46:40.500Z,5.10
2022-09-25T03:49:08.240Z,4.97
2022-09-25T03:51:35.271Z,5.47
2022-09-25T03:54:03.148Z,7.20
2022-09-25T03:56:29.944Z,6.60
2022-09-25T03:58:57.510Z,6.77
2022-09-25T04:01:25.415Z,4.97
2022-09-25T04:03:52.548Z,5.13
2022-09-25T04:06:21.657Z,5.57
2022-09-25T04:08:48.866Z,6.27
2022-09-25T04:11:17.606Z,5.03
2022-09-25T04:13:46.696Z,5.93
2022-09-25T04:16:16.194Z,4.43
2022-09-25T04:18:43.224Z,6.23
2022-09-25T04:21:12.715Z,5.80
2022-09-25T04:23:39.977Z,6.20
2022-09-25T04:26:08.495Z,6.13
2022-09-25T04:28:35.757Z,6.07
2022-09-25T04:31:03.947Z,5.57
2022-09-25T04:33:48.753Z,4.60
2022-09-25T04:36:18.287Z,5.17
2022-09-25T04:38:45.101Z,6.07
2022-09-25T04:41:11.691Z,5.83
2022-09-25T04:43:38.653Z,5.20
2022-09-25T04:46:07.395Z,6.47
2022-09-25T04:48:35.773Z,6.20
2022-09-25T04:51:03.004Z,7.20
2022-09-25T04:53:30.884Z,7.67
2022-09-25T04:56:02.494Z,6.43
2022-09-25T04:58:29.266Z,6.77
2022-09-25T05:00:55.824Z,6.07
2022-09-25T05:03:22.456Z,7.40
2022-09-25T05:05:49.682Z,5.30
2022-09-25T05:08:16.270Z,6.10
2022-09-25T05:10:43.939Z,5.33
2022-09-25T05:13:11.415Z,5.43
2022-09-25T05:15:37.921Z,4.43
2022-09-25T05:18:14.427Z,5.50
2022-09-25T05:20:40.912Z,6.53
2022-09-25T05:23:07.428Z,6.53
2022-09-25T05:25:33.917Z,7.00
2022-09-25T05:28:01.654Z,5.47
2022-09-25T05:30:30.911Z,6.00
2022-09-25T05:32:58.446Z,4.60
2022-09-25T05:35:27.190Z,4.93
2022-09-25T05:37:54.058Z,5.33
2022-09-25T05:40:21.663Z,5.50
2022-09-25T05:42:49.233Z,5.10
2022-09-25T05:45:17.534Z,5.83
2022-09-25T05:47:44.761Z,5.73
2022-09-25T05:50:14.009Z,7.37
2022-09-25T05:52:41.171Z,6.57
2022-09-25T05:55:09.811Z,6.00
2022-09-25T05:57:37.823Z,6.00
2022-09-25T06:00:06.369Z,5.50
2022-09-25T06:02:33.121Z,6.20
2022-09-25T06:04:59.739Z,5.80
2022-09-25T06:07:26.265Z,6.67
2022-09-25T06:09:52.909Z,7.20
2022-09-25T06:12:19.846Z,7.10
2022-09-25T06:14:46.663Z,6.27
2022-09-25T06:17:13.889Z,7.50
2022-09-25T06:19:40.447Z,6.33
2022-09-25T06:22:07.078Z,6.30
2022-09-25T06:24:33.661Z,6.60
2022-09-25T06:27:00.138Z,6.47
2022-09-25T06:29:26.642Z,6.43
2022-09-25T06:31:53.401Z,6.43
2022-09-25T06:34:20.286Z,6.63
2022-09-25T06:36:46.852Z,6.87
2022-09-25T06:39:13.408Z,6.00
2022-09-25T06:41:41.275Z,5.67
2022-09-25T06:44:09.249Z,5.67
2022-09-25T06:46:36.741Z,5.90
2022-09-25T06:49:03.412Z,7.03
2022-09-25T06:51:35.359Z,6.23
2022-09-25T06:54:02.565Z,7.73
2022-09-25T06:56:29.050Z,7.33
2022-09-25T06:58:55.715Z,6.37
2022-09-25T07:01:22.314Z,6.57
2022-09-25T07:03:49.852Z,6.50
2022-09-25T07:06:22.138Z,5.10
2022-09-25T07:08:50.332Z,6.07
2022-09-25T07:11:21.913Z,6.50
2022-09-25T07:13:53.157Z,6.87
2022-09-25T07:16:20.836Z,5.60
2022-09-25T07:18:47.913Z,6.20
2022-09-25T07:21:16.764Z,5.83
2022-09-25T07:23:43.813Z,6.30
2022-09-25T07:26:12.997Z,6.93
2022-09-25T07:28:41.051Z,6.63
2022-09-25T07:31:19.557Z,7.40
2022-09-25T07:33:47.072Z,6.80
2022-09-25T07:36:15.276Z,6.67
2022-09-25T07:38:42.312Z,7.03
2022-09-25T07:41:13.654Z,6.37
2022-09-25T07:43:43.326Z,5.87
2022-09-25T07:46:10.390Z,6.28
2022-09-25T07:48:36.917Z,5.78
2022-09-25T07:51:05.908Z,6.10
2022-09-25T07:53:33.068Z,5.85
2022-09-25T07:56:06.273Z,5.80
2022-09-25T07:58:35.532Z,6.15
2022-09-25T08:01:04.782Z,5.88
2022-09-25T08:03:31.604Z,5.68
2022-09-25T08:06:03.278Z,6.82
2022-09-25T08:08:30.244Z,5.82
2022-09-25T08:11:06.853Z,6.07
2022-09-25T08:13:34.236Z,5.13
2022-09-25T08:16:15.406Z,5.90
2022-09-25T08:18:45.523Z,4.93
2022-09-25T08:21:16.222Z,5.35
2022-09-25T08:23:47.923Z,4.88
2022-09-25T08:26:15.986Z,5.07
2022-09-25T08:28:42.697Z,5.78
2022-09-25T08:31:09.248Z,5.43
2022-09-25T08:33:37.515Z,5.45
2022-09-25T08:36:05.568Z,5.72
2022-09-25T08:38:35.209Z,5.63
2022-09-25T08:41:33.523Z,5.70
2022-09-25T08:44:06.281Z,5.15
2022-09-25T08:47:01.984Z,5.93
2022-09-25T08:49:34.817Z,5.32
2022-09-25T08:52:06.079Z,5.00
2022-09-25T08:54:35.043Z,4.93
2022-09-25T08:57:27.047Z,5.65
2022-09-25T09:00:02.184Z,4.30
2022-09-25T09:02:40.979Z,4.50
2022-09-25T09:05:17.677Z,4.88
2022-09-25T09:07:50.066Z,4.68
2022-09-25T09:10:37.271Z,5.60
2022-09-25T09:13:17.290Z,5.30
2022-09-25T09:15:49.770Z,5.55
2022-09-25T09:18:24.949Z,5.13
2022-09-25T09:20:57.275Z,5.45
2022-09-25T09:23:33.219Z,4.80
2022-09-25T09:26:04.136Z,4.18
2022-09-25T09:28:55.074Z,4.55
2022-09-25T09:31:46.868Z,4.75
2022-09-25T09:35:00.986Z,5.00
2022-09-25T09:37:31.827Z,4.88
2022-09-25T09:40:18.092Z,5.10
2022-09-25T09:42:55.013Z,4.50
2022-09-25T09:45:32.447Z,5.40
2022-09-25T09:48:35.790Z,5.75
2022-09-25T09:51:15.989Z,4.78
2022-09-25T09:53:42.444Z,4.18
2022-09-25T09:56:28.533Z,5.13
2022-09-25T09:59:02.908Z,5.93
2022-09-25T10:01:41.819Z,5.20
2022-09-25T10:04:18.035Z,4.90
2022-09-25T10:07:08.299Z,5.47
2022-09-25T10:09:36.082Z,6.18
2022-09-25T10:12:05.886Z,5.20
2022-09-25T10:14:38.490Z,5.20
2022-09-25T10:17:07.386Z,4.90
2022-09-25T10:19:47.644Z,5.20
2022-09-25T10:22:17.424Z,4.20
2022-09-25T10:24:58.523Z,4.47
2022-09-25T10:27:31.010Z,4.57
2022-09-25T10:30:20.571Z,3.85
2022-09-25T10:32:57.355Z,4.03
2022-09-25T10:35:39.966Z,4.28
2022-09-25T10:38:19.150Z,4.30
2022-09-25T10:40:47.796Z,4.10
2022-09-25T10:43:18.066Z,5.10
2022-09-25T10:45:45.061Z,4.20
2022-09-25T10:48:47.527Z,3.88
2022-09-25T10:51:18.461Z,4.78
2022-09-25T10:53:46.236Z,3.92
2022-09-25T10:56:18.817Z,4.25
2022-09-25T10:58:55.024Z,4.00
2022-09-25T11:01:30.781Z,4.05
2022-09-25T11:03:58.926Z,3.85
2022-09-25T11:06:34.932Z,4.30
2022-09-25T11:09:16.523Z,4.00
2022-09-25T11:11:47.035Z,4.53
2022-09-25T11:14:32.571Z,4.60
2022-09-25T11:17:01.493Z,4.47
2022-09-25T11:19:31.080Z,4.82
2022-09-25T11:22:05.065Z,4.50
2022-09-25T11:24:48.402Z,4.43
2022-09-25T11:27:19.079Z,4.85
2022-09-25T11:29:58.535Z,4.07
2022-09-25T11:32:37.400Z,4.22
2022-09-25T11:35:21.514Z,4.18
2022-09-25T11:38:09.650Z,3.25
2022-09-25T11:41:16.510Z,3.65
2022-09-25T11:43:42.922Z,5.40
2022-09-25T11:46:35.408Z,3.13
2022-09-25T11:49:16.535Z,3.75
2022-09-25T11:52:10.159Z,4.07
2022-09-25T11:55:03.237Z,3.80
2022-09-25T11:57:59.171Z,3.83
2022-09-25T12:00:41.467Z,4.07
2022-09-25T12:03:35.330Z,3.78
2022-09-25T12:06:34.014Z,3.85
2022-09-25T12:09:27.622Z,3.53
2022-09-25T12:12:12.811Z,3.45
2022-09-25T12:15:10.224Z,3.55
2022-09-25T12:17:54.979Z,3.22
2022-09-25T12:20:32.772Z,3.50
2022-09-25T12:23:25.491Z,3.63
2022-09-25T12:26:15.384Z,3.85
2022-09-25T12:28:52.637Z,3.00
2022-09-25T12:31:39.651Z,2.70
2022-09-25T12:34:26.802Z,3.13
2022-09-25T12:36:57.197Z,3.67
2022-09-25T12:39:43.715Z,3.45
2022-09-25T12:42:25.702Z,3.38
2022-09-25T12:45:05.675Z,3.38
2022-09-25T12:47:45.997Z,3.33
2022-09-25T12:50:34.572Z,3.63
2022-09-25T12:53:33.633Z,3.08
2022-09-25T12:56:08.997Z,2.97
2022-09-25T12:59:30.106Z,3.42
2022-09-25T13:02:12.179Z,3.15
2022-09-25T13:05:02.512Z,3.42
2022-09-25T13:07:50.972Z,4.05
2022-09-25T13:10:26.476Z,4.03
2022-09-25T13:12:57.235Z,3.30
2022-09-25T13:15:32.356Z,3.60
2022-09-25T13:17:59.221Z,2.78
2022-09-25T13:20:28.839Z,2.58
2022-09-25T13:23:08.012Z,3.90
2022-09-25T13:25:59.787Z,4.25
2022-09-25T13:28:35.202Z,3.45
2022-09-25T13:31:09.085Z,2.00
2022-09-25T13:34:06.939Z,1.58
2022-09-25T13:36:55.937Z,1.77
2022-09-25T13:39:51.746Z,1.58
2022-09-25T13:42:42.339Z,2.17
2022-09-25T13:45:33.177Z,2.00
2022-09-25T13:48:07.881Z,2.05
2022-09-25T13:50:38.720Z,1.90
2022-09-25T13:53:37.478Z,1.92
2022-09-25T13:56:04.011Z,1.85
2022-09-25T13:58:51.632Z,2.05
2022-09-25T14:01:34.671Z,2.55
2022-09-25T14:04:07.500Z,2.33
2022-09-25T14:06:39.019Z,2.28
2022-09-25T14:09:18.750Z,2.40
2022-09-25T14:12:08.385Z,1.90
2022-09-25T14:14:34.818Z,2.22
2022-09-25T14:17:02.360Z,1.80
2022-09-25T14:19:35.771Z,2.20
2022-09-25T14:22:05.018Z,1.63
2022-09-25T14:24:31.707Z,1.70
2022-09-25T14:27:01.296Z,1.55
2022-09-25T14:29:38.363Z,1.75
2022-09-25T14:32:55.256Z,1.80
2022-09-25T14:35:47.489Z,1.98
2022-09-25T14:38:37.001Z,2.20
2022-09-25T14:41:24.579Z,2.13
2022-09-25T14:44:00.225Z,2.00
2022-09-25T14:46:28.064Z,2.15
2022-09-25T14:49:03.724Z,2.15
2022-09-25T14:51:43.589Z,2.17
2022-09-25T14:54:18.099Z,1.92
2022-09-25T14:56:50.358Z,1.63
2022-09-25T14:59:24.609Z,2.13
2022-09-25T15:01:52.967Z,1.85
2022-09-25T15:04:28.548Z,1.88
2022-09-25T15:07:08.840Z,1.33
2022-09-25T15:09:37.970Z,1.60
2022-09-25T15:12:17.961Z,3.15
2022-09-25T15:15:02.498Z,2.13
2022-09-25T15:17:31.351Z,1.95
2022-09-25T15:20:01.984Z,2.40
2022-09-25T15:22:38.768Z,1.55
2022-09-25T15:25:08.099Z,1.35
2022-09-25T15:27:42.557Z,1.40
2022-09-25T15:30:15.974Z,1.30
2022-09-25T15:32:47.175Z,1.52
2022-09-25T15:35:17.489Z,1.80
2022-09-25T15:37:45.243Z,1.70
2022-09-25T15:40:23.049Z,1.30
2022-09-25T15:42:50.927Z,2.20
2022-09-25T15:45:32.755Z,1.70
2022-09-25T15:48:02.380Z,1.27
2022-09-25T15:50:29.405Z,1.30
2022-09-25T15:52:59.087Z,1.92
2022-09-25T15:55:26.405Z,1.63
2022-09-25T15:57:55.556Z,1.52
2022-09-25T16:00:43.388Z,1.20
2022-09-25T16:03:48.898Z,1.67
2022-09-25T16:06:17.174Z,1.60
2022-09-25T16:08:44.052Z,1.27
2022-09-25T16:11:24.142Z,1.52
2022-09-25T16:14:14.555Z,2.13
2022-09-25T16:16:47.188Z,1.30
2022-09-25T16:19:27.096Z,1.47
2022-09-25T16:21:54.642Z,2.13
2022-09-25T16:24:28.318Z,1.25
2022-09-25T16:27:03.458Z,1.90
2022-09-25T16:29:33.618Z,1.97
2022-09-25T16:32:13.148Z,1.70
2022-09-25T16:34:41.146Z,1.60
2022-09-25T16:37:20.771Z,1.40
2022-09-25T16:40:09.119Z,1.37
2022-09-25T16:42:42.479Z,1.93
2022-09-25T16:45:16.140Z,1.40
2022-09-25T16:47:48.262Z,1.73
2022-09-25T16:50:16.607Z,1.03
2022-09-25T16:52:44.097Z,2.13
2022-09-25T16:55:30.839Z,1.90
2022-09-25T16:57:59.059Z,2.30
2022-09-25T17:00:29.992Z,2.83
2022-09-25T17:02:56.829Z,2.77
2022-09-25T17:05:29.482Z,2.47
2022-09-25T17:08:00.051Z,3.27
2022-09-25T17:10:29.359Z,2.90
2022-09-25T17:12:57.455Z,2.30
2022-09-25T17:15:29.359Z,1.90
2022-09-25T17:17:56.049Z,2.83
2022-09-25T17:20:24.732Z,2.57
2022-09-25T17:22:52.659Z,2.67
2022-09-25T17:25:45.149Z,3.20
2022-09-25T17:28:12.160Z,2.50
2022-09-25T17:30:39.507Z,2.67
2022-09-25T17:33:06.580Z,3.07
2022-09-25T17:35:41.679Z,2.60
2022-09-25T17:38:08.869Z,2.67
2022-09-25T17:40:36.029Z,1.83
2022-09-25T17:43:02.671Z,1.70
2022-09-25T17:45:37.838Z,1.77
2022-09-25T17:48:04.551Z,2.37
2022-09-25T17:50:31.766Z,2.73
2022-09-25T17:52:58.999Z,2.33
2022-09-25T17:55:25.929Z,2.53
2022-09-25T17:57:52.428Z,2.47
2022-09-25T18:00:19.032Z,2.30
2022-09-25T18:02:45.863Z,2.57
2022-09-25T18:05:16.630Z,2.53
2022-09-25T18:07:43.734Z,3.27
2022-09-25T18:10:11.671Z,2.73
2022-09-25T18:12:38.259Z,2.50
2022-09-25T18:15:05.407Z,2.60
2022-09-25T18:17:31.950Z,2.30
2022-09-25T18:20:17.214Z,2.70
2022-09-25T18:22:44.606Z,3.60
2022-09-25T18:25:11.205Z,3.30
2022-09-25T18:27:41.653Z,3.60
2022-09-25T18:30:14.586Z,2.80
2022-09-25T18:32:41.253Z,2.40
2022-09-25T18:35:09.135Z,1.87
2022-09-25T18:37:36.190Z,1.83
2022-09-25T18:40:03.636Z,2.03
2022-09-25T18:42:30.131Z,2.47
2022-09-25T18:44:56.620Z,1.70
2022-09-25T18:47:23.210Z,2.50
2022-09-25T18:49:50.409Z,1.67
2022-09-25T18:52:17.075Z,2.03
2022-09-25T18:54:43.655Z,1.90
2022-09-25T18:57:12.072Z,1.53
2022-09-25T18:59:39.778Z,2.03
2022-09-25T19:02:13.205Z,1.93
2022-09-25T19:04:39.907Z,2.23
2022-09-25T19:07:06.484Z,2.70
2022-09-25T19:09:33.000Z,4.53
2022-09-25T19:11:59.469Z,3.50
2022-09-25T19:14:26.068Z,3.00
2022-09-25T19:16:53.224Z,2.97
2022-09-25T19:19:19.847Z,3.13
2022-09-25T19:21:46.361Z,2.37
2022-09-25T19:24:12.877Z,2.27
2022-09-25T19:26:41.646Z,2.63
2022-09-25T19:29:08.469Z,2.43
2022-09-25T19:31:35.419Z,2.37
2022-09-25T19:34:02.956Z,1.60
2022-09-25T19:36:32.246Z,2.00
2022-09-25T19:38:59.818Z,1.93
2022-09-25T19:41:28.779Z,1.80
2022-09-25T19:43:57.423Z,1.60
2022-09-25T19:46:24.622Z,2.43
2022-09-25T19:48:51.389Z,2.00
2022-09-25T19:51:21.225Z,1.93
2022-09-25T19:53:48.719Z,2.20
2022-09-25T19:56:16.535Z,1.63
2022-09-25T19:58:43.494Z,1.53
2022-09-25T20:01:14.335Z,2.00
2022-09-25T20:03:41.882Z,2.33
2022-09-25T20:06:09.630Z,1.73
2022-09-25T20:08:36.499Z,2.73
2022-09-25T20:11:16.858Z,1.70
2022-09-25T20:13:43.622Z,1.87
2022-09-25T20:16:13.022Z,1.97
2022-09-25T20:18:40.542Z,2.43
2022-09-25T20:21:08.698Z,2.13
2022-09-25T20:23:36.024Z,2.77
2022-09-25T20:26:13.912Z,2.13
2022-09-25T20:28:40.925Z,2.53
2022-09-25T20:31:10.192Z,2.23
2022-09-25T20:33:37.394Z,2.10
2022-09-25T20:36:06.809Z,2.40
2022-09-25T20:38:34.055Z,2.33
2022-09-25T20:41:01.902Z,2.33
2022-09-25T20:43:28.673Z,2.23
2022-09-25T20:46:01.054Z,2.20
2022-09-25T20:48:27.990Z,2.50
2022-09-25T20:50:55.016Z,2.27
2022-09-25T20:53:21.802Z,2.37
2022-09-25T20:55:48.471Z,2.20
2022-09-25T20:58:14.914Z,2.10
2022-09-25T21:00:41.387Z,2.20
2022-09-25T21:03:08.030Z,1.80
2022-09-25T21:05:39.268Z,2.00
2022-09-25T21:08:06.776Z,2.27
2022-09-25T21:10:38.832Z,2.13
2022-09-25T21:13:05.557Z,2.60
2022-09-25T21:15:35.577Z,2.30
2022-09-25T21:18:02.057Z,2.40
2022-09-25T21:20:28.695Z,2.33
2022-09-25T21:22:55.252Z,2.40
2022-09-25T21:25:21.791Z,1.70
2022-09-25T21:27:48.319Z,1.80
2022-09-25T21:30:15.041Z,1.67
2022-09-25T21:32:41.602Z,1.73
2022-09-25T21:35:08.577Z,1.40
2022-09-25T21:37:35.051Z,1.57
2022-09-25T21:40:01.857Z,2.43
2022-09-25T21:42:29.701Z,1.77
2022-09-25T21:44:57.172Z,2.43
2022-09-25T21:47:23.831Z,5.83
2022-09-25T21:49:50.336Z,2.20
2022-09-25T21:52:16.879Z,4.67
2022-09-25T21:54:43.544Z,2.13
2022-09-25T21:57:10.011Z,1.77
2022-09-25T21:59:37.162Z,1.70
2022-09-25T22:02:03.721Z,1.77
2022-09-25T22:04:30.237Z,1.70
2022-09-25T22:06:58.331Z,1.63
2022-09-25T22:09:25.573Z,1.70
2022-09-25T22:11:52.302Z,1.57
2022-09-25T22:14:20.174Z,1.50
2022-09-25T22:16:49.848Z,1.70
2022-09-25T22:19:19.602Z,1.30
2022-09-25T22:21:47.993Z,1.70
2022-09-25T22:24:14.993Z,1.53
2022-09-25T22:26:44.252Z,1.33
2022-09-25T22:29:11.762Z,1.80
2022-09-25T22:31:41.033Z,1.53
2022-09-25T22:34:12.987Z,1.83
2022-09-25T22:36:39.577Z,1.57
2022-09-25T22:39:06.777Z,1.63
2022-09-25T22:41:33.447Z,1.50
2022-09-25T22:44:01.074Z,1.77
2022-09-25T22:46:28.123Z,1.50
2022-09-25T22:48:54.733Z,1.50
2022-09-25T22:51:23.014Z,1.30
2022-09-25T22:53:50.550Z,1.73
2022-09-25T22:56:20.251Z,1.07
2022-09-25T22:58:49.899Z,1.47
2022-09-25T23:01:23.998Z,1.60
2022-09-25T23:03:55.529Z,1.60
2022-09-25T23:06:22.823Z,1.37
2022-09-25T23:08:54.407Z,1.97
2022-09-25T23:11:22.104Z,1.37
2022-09-25T23:13:50.762Z,1.63
2022-09-25T23:16:18.528Z,2.00
2022-09-25T23:18:45.207Z,1.73
2022-09-25T23:21:11.870Z,1.73
2022-09-25T23:23:38.706Z,2.03
2022-09-25T23:26:08.143Z,1.77
2022-09-25T23:28:37.727Z,1.33
2022-09-25T23:31:15.540Z,1.50
2022-09-25T23:33:43.080Z,1.63
2022-09-25T23:36:17.719Z,1.73
2022-09-25T23:38:45.145Z,1.57
2022-09-25T23:41:17.222Z,1.60
2022-09-25T23:43:44.737Z,1.30
2022-09-25T23:46:12.206Z,1.33
2022-09-25T23:48:39.098Z,1.17
2022-09-25T23:51:05.799Z,1.20
2022-09-25T23:53:33.327Z,1.13
2022-09-25T23:56:06.401Z,1.73
2022-09-25T23:58:33.693Z,1.47
